createdAt,value
2019-06-08T00:00:22.492Z,54.55
2019-06-08T00:02:53.981Z,54.66
2019-06-08T00:05:25.272Z,54.63
2019-06-08T00:07:56.624Z,54.72
2019-06-08T00:10:27.846Z,54.63
2019-06-08T00:12:59.162Z,54.71
2019-06-08T00:15:30.428Z,54.79
2019-06-08T00:18:01.687Z,54.81
2019-06-08T00:20:32.956Z,54.82
2019-06-08T00:23:04.319Z,54.78
2019-06-08T00:25:35.550Z,54.61
2019-06-08T00:28:06.909Z,54.51
2019-06-08T00:30:39.302Z,54.54
2019-06-08T00:33:10.472Z,54.45
2019-06-08T00:35:41.735Z,54.51
2019-06-08T00:38:12.999Z,54.60
2019-06-08T00:40:44.788Z,54.60
2019-06-08T00:43:17.272Z,54.62
2019-06-08T00:45:48.880Z,54.74
2019-06-08T00:48:21.150Z,54.99
2019-06-08T00:50:52.468Z,54.97
2019-06-08T00:53:23.731Z,55.19
2019-06-08T00:55:54.984Z,56.10
2019-06-08T00:58:26.413Z,55.34
2019-06-08T01:00:57.728Z,55.98
2019-06-08T01:03:30.025Z,55.47
2019-06-08T01:06:01.418Z,55.88
2019-06-08T01:08:32.643Z,56.11
2019-06-08T01:11:03.909Z,55.95
2019-06-08T01:13:35.136Z,55.70
2019-06-08T01:16:06.392Z,55.61
2019-06-08T01:18:37.681Z,55.52
2019-06-08T01:21:08.941Z,55.33
2019-06-08T01:23:40.239Z,55.27
2019-06-08T01:26:11.516Z,55.17
2019-06-08T01:28:42.733Z,55.08
2019-06-08T01:31:14.051Z,55.00
2019-06-08T01:33:45.246Z,55.00
2019-06-08T01:36:16.484Z,55.00
2019-06-08T01:38:47.703Z,55.05
2019-06-08T01:41:18.971Z,55.19
2019-06-08T01:43:50.196Z,55.23
2019-06-08T01:46:21.910Z,55.18
2019-06-08T01:48:53.271Z,55.23
2019-06-08T01:51:24.634Z,55.30
2019-06-08T01:53:57.033Z,55.33
2019-06-08T01:56:29.203Z,55.46
2019-06-08T01:59:00.831Z,55.54
2019-06-08T02:01:32.205Z,55.66
2019-06-08T02:04:03.586Z,55.81
2019-06-08T02:06:34.855Z,55.88
2019-06-08T02:09:08.620Z,55.95
2019-06-08T02:11:39.913Z,56.01
2019-06-08T02:14:11.335Z,55.96
2019-06-08T02:16:42.650Z,55.96
2019-06-08T02:19:14.107Z,55.97
2019-06-08T02:21:45.377Z,55.99
2019-06-08T02:24:16.608Z,56.09
2019-06-08T02:26:47.838Z,56.14
2019-06-08T02:29:19.224Z,56.21
2019-06-08T02:31:50.559Z,56.22
2019-06-08T02:34:21.820Z,56.24
2019-06-08T02:36:53.074Z,56.29
2019-06-08T02:39:24.413Z,56.34
2019-06-08T02:41:55.799Z,56.42
2019-06-08T02:44:28.299Z,56.49
2019-06-08T02:46:59.968Z,56.52
2019-06-08T02:49:31.241Z,56.57
2019-06-08T02:52:02.508Z,56.62
2019-06-08T02:54:37.222Z,56.69
2019-06-08T02:57:07.847Z,56.72
2019-06-08T02:59:40.939Z,56.65
2019-06-08T03:02:12.068Z,56.61
2019-06-08T03:04:43.330Z,56.59
2019-06-08T03:07:16.779Z,56.58
2019-06-08T03:09:49.570Z,56.52
2019-06-08T03:12:21.563Z,56.50
2019-06-08T03:14:54.626Z,56.50
2019-06-08T03:17:25.847Z,56.52
2019-06-08T03:19:57.156Z,56.50
2019-06-08T03:22:28.461Z,56.44
2019-06-08T03:25:00.259Z,56.43
2019-06-08T03:27:32.646Z,56.39
2019-06-08T03:30:16.268Z,56.36
2019-06-08T03:32:47.034Z,56.31
2019-06-08T03:35:11.085Z,56.38
2019-06-08T03:37:44.276Z,56.34
2019-06-08T03:40:16.452Z,56.34
2019-06-08T03:42:49.001Z,56.28
2019-06-08T03:45:20.687Z,56.31
2019-06-08T03:47:51.927Z,56.36
2019-06-08T03:50:23.185Z,56.37
2019-06-08T03:52:54.476Z,56.44
2019-06-08T03:55:25.773Z,56.54
2019-06-08T03:57:57.059Z,56.63
2019-06-08T04:00:28.536Z,56.64
2019-06-08T04:03:01.434Z,56.67
2019-06-08T04:05:33.776Z,56.66
2019-06-08T04:08:05.118Z,56.64
2019-06-08T04:10:37.658Z,56.61
2019-06-08T04:13:11.558Z,56.58
2019-06-08T04:15:42.661Z,56.55
2019-06-08T04:18:14.855Z,56.48
2019-06-08T04:20:48.508Z,56.43
2019-06-08T04:23:19.306Z,56.48
2019-06-08T04:25:50.791Z,56.49
2019-06-08T04:28:23.020Z,56.60
2019-06-08T04:30:54.210Z,56.58
2019-06-08T04:33:25.494Z,56.56
2019-06-08T04:35:56.690Z,56.54
2019-06-08T04:38:27.930Z,56.50
2019-06-08T04:40:59.083Z,56.46
2019-06-08T04:43:30.305Z,56.49
2019-06-08T04:46:01.586Z,56.48
2019-06-08T04:48:32.862Z,56.46
2019-06-08T04:51:04.245Z,56.33
2019-06-08T04:53:35.515Z,56.33
2019-06-08T04:56:06.765Z,56.29
2019-06-08T04:58:39.801Z,56.27
2019-06-08T05:01:11.035Z,56.26
2019-06-08T05:03:43.279Z,56.12
2019-06-08T05:06:14.623Z,56.01
2019-06-08T05:08:47.208Z,55.93
2019-06-08T05:11:18.793Z,55.75
2019-06-08T05:13:50.004Z,55.72
2019-06-08T05:16:21.224Z,55.68
2019-06-08T05:18:52.677Z,55.60
2019-06-08T05:21:23.857Z,55.49
2019-06-08T05:23:58.931Z,55.40
2019-06-08T05:26:28.146Z,55.35
2019-06-08T05:28:59.289Z,55.28
2019-06-08T05:31:30.525Z,55.25
2019-06-08T05:34:01.829Z,55.18
2019-06-08T05:36:33.540Z,55.08
2019-06-08T05:39:07.164Z,55.08
2019-06-08T05:41:39.381Z,54.95
2019-06-08T05:44:11.779Z,54.97
2019-06-08T05:46:43.736Z,54.87
2019-06-08T05:49:15.009Z,54.82
2019-06-08T05:51:46.184Z,54.73
2019-06-08T05:54:17.471Z,54.69
2019-06-08T05:56:50.255Z,54.67
2019-06-08T05:59:22.601Z,54.70
2019-06-08T06:01:53.847Z,54.64
2019-06-08T06:04:25.153Z,54.62
2019-06-08T06:06:56.621Z,54.56
2019-06-08T06:09:28.016Z,54.56
2019-06-08T06:11:59.185Z,54.55
2019-06-08T06:14:30.683Z,54.50
2019-06-08T06:17:01.945Z,54.44
2019-06-08T06:19:34.822Z,54.39
2019-06-08T06:22:06.136Z,54.34
2019-06-08T06:24:37.381Z,54.30
2019-06-08T06:27:08.560Z,54.29
2019-06-08T06:29:39.785Z,54.18
2019-06-08T06:32:11.114Z,54.09
2019-06-08T06:34:43.802Z,54.00
2019-06-08T06:37:15.115Z,53.87
2019-06-08T06:39:46.337Z,53.74
2019-06-08T06:42:17.631Z,53.59
2019-06-08T06:44:49.359Z,53.46
2019-06-08T06:47:21.837Z,53.39
2019-06-08T06:49:52.988Z,53.39
2019-06-08T06:52:24.205Z,53.32
2019-06-08T06:54:55.402Z,53.38
2019-06-08T06:57:26.559Z,53.41
2019-06-08T06:59:57.782Z,53.39
2019-06-08T07:02:29.149Z,53.35
2019-06-08T07:05:00.502Z,53.30
2019-06-08T07:07:31.759Z,53.22
2019-06-08T07:10:04.294Z,53.15
2019-06-08T07:12:35.646Z,53.03
2019-06-08T07:15:07.745Z,52.96
2019-06-08T07:17:39.037Z,52.88
2019-06-08T07:20:10.254Z,52.84
2019-06-08T07:22:41.520Z,52.75
2019-06-08T07:25:12.746Z,52.71
2019-06-08T07:27:44.021Z,52.64
2019-06-08T07:30:15.997Z,52.64
2019-06-08T07:32:48.122Z,52.61
2019-06-08T07:35:21.435Z,52.53
2019-06-08T07:37:53.714Z,52.42
2019-06-08T07:40:24.972Z,52.36
2019-06-08T07:42:56.744Z,52.23
2019-06-08T07:45:29.187Z,52.08
2019-06-08T07:48:00.713Z,51.91
2019-06-08T07:50:31.898Z,51.76
2019-06-08T07:53:03.182Z,51.71
2019-06-08T07:55:34.984Z,51.54
2019-06-08T07:58:06.303Z,51.32
2019-06-08T08:00:37.541Z,50.93
2019-06-08T08:03:10.410Z,50.55
2019-06-08T08:05:41.709Z,50.34
2019-06-08T08:08:12.867Z,50.24
2019-06-08T08:10:44.110Z,50.09
2019-06-08T08:13:15.411Z,49.71
2019-06-08T08:15:46.580Z,49.56
2019-06-08T08:18:17.825Z,49.38
2019-06-08T08:20:49.455Z,49.25
2019-06-08T08:23:20.771Z,49.01
2019-06-08T08:25:53.077Z,48.81
2019-06-08T08:28:24.536Z,48.56
2019-06-08T08:30:58.567Z,48.48
2019-06-08T08:33:28.766Z,48.29
2019-06-08T08:36:01.835Z,48.02
2019-06-08T08:38:32.802Z,47.85
2019-06-08T08:41:07.645Z,47.69
2019-06-08T08:43:37.731Z,47.60
2019-06-08T08:46:09.126Z,47.11
2019-06-08T08:48:40.349Z,46.99
2019-06-08T08:51:11.846Z,46.71
2019-06-08T08:53:43.133Z,46.60
2019-06-08T08:56:15.512Z,46.50
2019-06-08T08:58:47.770Z,46.21
2019-06-08T09:01:20.573Z,46.01
2019-06-08T09:03:55.577Z,45.89
2019-06-08T09:06:24.881Z,45.72
2019-06-08T09:08:59.694Z,45.77
2019-06-08T09:11:29.109Z,45.36
2019-06-08T09:14:05.121Z,45.35
2019-06-08T09:16:34.284Z,45.28
2019-06-08T09:19:07.898Z,45.21
2019-06-08T09:21:38.599Z,45.04
2019-06-08T09:24:10.186Z,44.97
2019-06-08T09:26:41.782Z,44.83
2019-06-08T09:29:13.173Z,44.72
2019-06-08T09:31:44.570Z,44.70
2019-06-08T09:34:19.290Z,44.66
2019-06-08T09:36:49.033Z,44.46
2019-06-08T09:39:20.388Z,44.36
2019-06-08T09:41:53.751Z,44.38
2019-06-08T09:44:26.099Z,44.23
2019-06-08T09:47:02.771Z,44.20
2019-06-08T09:49:31.339Z,44.12
2019-06-08T09:52:04.919Z,44.00
2019-06-08T09:54:38.246Z,43.87
2019-06-08T09:57:09.491Z,43.59
2019-06-08T09:59:42.865Z,43.21
2019-06-08T10:02:14.283Z,43.03
2019-06-08T10:04:45.672Z,42.70
2019-06-08T10:07:18.631Z,42.53
2019-06-08T10:09:50.310Z,42.49
2019-06-08T10:12:21.779Z,42.02
2019-06-08T10:14:54.469Z,41.73
2019-06-08T10:17:27.781Z,41.49
2019-06-08T10:20:00.655Z,41.12
2019-06-08T10:22:31.777Z,40.96
2019-06-08T10:25:06.576Z,40.51
2019-06-08T10:27:38.444Z,40.37
2019-06-08T10:30:10.307Z,40.26
2019-06-08T10:32:41.779Z,40.11
2019-06-08T10:35:13.061Z,39.98
2019-06-08T10:37:44.467Z,39.81
2019-06-08T10:40:18.549Z,39.67
2019-06-08T10:42:48.636Z,39.52
2019-06-08T10:45:22.401Z,39.37
2019-06-08T10:47:53.603Z,39.08
2019-06-08T10:50:28.684Z,38.86
2019-06-08T10:53:02.308Z,38.82
2019-06-08T10:55:31.668Z,38.58
2019-06-08T10:58:04.385Z,38.38
2019-06-08T11:00:38.689Z,38.11
2019-06-08T11:03:10.534Z,38.13
2019-06-08T11:05:42.000Z,38.00
2019-06-08T11:08:14.712Z,37.69
2019-06-08T11:10:47.487Z,37.51
2019-06-08T11:13:19.900Z,37.38
2019-06-08T11:15:51.155Z,37.35
2019-06-08T11:18:22.365Z,37.34
2019-06-08T11:20:53.587Z,37.02
2019-06-08T11:23:24.904Z,37.06
2019-06-08T11:26:03.244Z,37.04
2019-06-08T11:28:28.940Z,36.91
2019-06-08T11:31:01.780Z,36.74
2019-06-08T11:33:34.433Z,36.64
2019-06-08T11:36:09.987Z,36.62
2019-06-08T11:38:38.642Z,36.38
2019-06-08T11:41:13.146Z,36.27
2019-06-08T11:43:42.748Z,36.10
2019-06-08T11:46:14.049Z,35.97
2019-06-08T11:48:45.253Z,35.97
2019-06-08T11:51:16.645Z,36.10
2019-06-08T11:53:51.267Z,35.98
2019-06-08T11:56:20.932Z,35.91
2019-06-08T11:58:52.678Z,35.92
2019-06-08T12:01:23.948Z,35.93
2019-06-08T12:03:57.819Z,35.84
2019-06-08T12:06:28.445Z,35.61
2019-06-08T12:09:00.273Z,35.64
2019-06-08T12:11:32.155Z,35.56
2019-06-08T12:14:03.355Z,35.46
2019-06-08T12:16:34.590Z,35.40
2019-06-08T12:19:06.804Z,35.35
2019-06-08T12:21:38.789Z,32.79
2019-06-08T12:24:10.437Z,33.49
2019-06-08T12:26:42.067Z,33.66
2019-06-08T12:29:14.562Z,33.80
2019-06-08T12:31:46.261Z,33.77
2019-06-08T12:34:18.502Z,33.99
2019-06-08T12:36:49.902Z,33.98
2019-06-08T12:39:21.510Z,33.95
2019-06-08T12:41:52.959Z,33.89
2019-06-08T12:44:26.172Z,33.82
2019-06-08T12:46:58.539Z,33.78
2019-06-08T12:49:29.921Z,33.76
2019-06-08T12:52:01.325Z,33.72
2019-06-08T12:54:32.643Z,33.70
2019-06-08T12:57:03.794Z,33.73
2019-06-08T12:59:34.936Z,33.60
2019-06-08T13:02:08.914Z,33.59
2019-06-08T13:04:39.184Z,33.25
2019-06-08T13:07:11.601Z,33.31
2019-06-08T13:09:43.421Z,33.20
2019-06-08T13:12:15.122Z,33.13
2019-06-08T13:14:47.721Z,32.99
2019-06-08T13:17:21.165Z,32.94
2019-06-08T13:19:52.256Z,32.75
2019-06-08T13:22:27.815Z,32.85
2019-06-08T13:25:14.419Z,32.79
2019-06-08T13:27:29.431Z,32.78
2019-06-08T13:30:00.652Z,32.80
2019-06-08T13:32:33.387Z,32.85
2019-06-08T13:35:04.593Z,32.85
2019-06-08T13:37:35.781Z,32.85
2019-06-08T13:40:08.257Z,32.73
2019-06-08T13:42:39.506Z,32.62
2019-06-08T13:45:11.447Z,32.51
2019-06-08T13:47:42.695Z,32.42
2019-06-08T13:50:14.493Z,32.43
2019-06-08T13:52:45.758Z,32.32
2019-06-08T13:55:36.293Z,32.27
2019-06-08T13:57:49.960Z,32.28
2019-06-08T14:00:32.516Z,32.13
2019-06-08T14:03:04.526Z,32.21
2019-06-08T14:05:38.511Z,32.37
2019-06-08T14:08:10.949Z,32.39
2019-06-08T14:10:41.803Z,32.28
2019-06-08T14:13:13.131Z,32.20
2019-06-08T14:15:44.276Z,32.01
2019-06-08T14:18:18.491Z,32.02
2019-06-08T14:20:48.560Z,31.98
2019-06-08T14:23:21.672Z,31.79
2019-06-08T14:25:56.646Z,31.71
2019-06-08T14:28:26.620Z,31.84
2019-06-08T14:30:59.400Z,31.83
2019-06-08T14:33:33.153Z,31.82
2019-06-08T14:36:03.631Z,31.87
2019-06-08T14:38:38.539Z,31.83
2019-06-08T14:41:07.785Z,31.93
2019-06-08T14:43:39.949Z,31.93
2019-06-08T14:46:11.266Z,32.05
2019-06-08T14:48:45.214Z,32.10
2019-06-08T14:51:15.426Z,32.12
2019-06-08T14:53:48.541Z,32.09
2019-06-08T14:56:21.025Z,32.06
2019-06-08T14:58:52.474Z,32.15
2019-06-08T15:01:25.358Z,32.24
2019-06-08T15:03:58.611Z,32.18
2019-06-08T15:06:33.959Z,32.10
2019-06-08T15:09:02.751Z,32.06
2019-06-08T15:11:37.958Z,32.08
2019-06-08T15:14:08.679Z,32.09
2019-06-08T15:16:41.879Z,32.21
2019-06-08T15:19:12.766Z,32.04
2019-06-08T15:21:43.973Z,31.98
2019-06-08T15:24:15.191Z,32.00
2019-06-08T15:26:48.846Z,32.09
2019-06-08T15:29:19.269Z,32.23
2019-06-08T15:31:50.515Z,32.10
2019-06-08T15:34:21.715Z,31.94
2019-06-08T15:36:52.953Z,31.95
2019-06-08T15:39:25.545Z,31.84
2019-06-08T15:41:59.954Z,31.66
2019-06-08T15:44:30.744Z,31.66
2019-06-08T15:47:03.166Z,31.68
2019-06-08T15:49:34.464Z,31.66
2019-06-08T15:52:05.713Z,31.59
2019-06-08T15:54:40.476Z,31.61
2019-06-08T15:57:09.825Z,31.48
2019-06-08T15:59:41.965Z,31.57
2019-06-08T16:02:13.357Z,31.67
2019-06-08T16:04:44.595Z,31.70
2019-06-08T16:07:16.774Z,31.71
2019-06-08T16:09:48.203Z,31.71
2019-06-08T16:12:19.373Z,31.79
2019-06-08T16:14:50.558Z,31.78
2019-06-08T16:17:21.780Z,31.66
2019-06-08T16:19:53.325Z,31.73
2019-06-08T16:22:25.745Z,31.70
2019-06-08T16:24:57.031Z,31.73
2019-06-08T16:27:28.221Z,31.71
2019-06-08T16:30:00.641Z,31.66
2019-06-08T16:32:33.518Z,31.59
2019-06-08T16:35:05.119Z,31.62
2019-06-08T16:37:36.346Z,31.53
2019-06-08T16:40:07.696Z,31.60
2019-06-08T16:42:38.868Z,31.66
2019-06-08T16:45:10.175Z,31.73
2019-06-08T16:47:43.716Z,31.70
2019-06-08T16:50:24.087Z,31.75
2019-06-08T16:52:48.389Z,31.75
2019-06-08T16:55:19.672Z,31.70
2019-06-08T16:57:50.866Z,31.71
2019-06-08T17:00:31.456Z,31.78
2019-06-08T17:02:55.482Z,31.79
2019-06-08T17:05:26.698Z,31.84
2019-06-08T17:07:57.874Z,31.92
2019-06-08T17:10:30.398Z,31.88
2019-06-08T17:13:01.747Z,31.89
2019-06-08T17:15:34.083Z,31.80
2019-06-08T17:18:05.415Z,31.77
2019-06-08T17:20:36.763Z,31.73
2019-06-08T17:23:08.009Z,31.69
2019-06-08T17:25:40.535Z,31.72
2019-06-08T17:28:12.107Z,31.72
2019-06-08T17:30:43.302Z,31.61
2019-06-08T17:33:14.514Z,31.62
2019-06-08T17:35:45.737Z,31.63
2019-06-08T17:38:16.994Z,31.63
2019-06-08T17:40:48.183Z,31.58
2019-06-08T17:43:19.325Z,31.46
2019-06-08T17:45:50.685Z,31.46
2019-06-08T17:48:21.968Z,31.43
2019-06-08T17:50:53.229Z,31.43
2019-06-08T17:53:25.594Z,31.38
2019-06-08T17:55:56.902Z,31.43
2019-06-08T17:58:28.091Z,31.43
2019-06-08T18:00:59.337Z,31.44
2019-06-08T18:03:30.559Z,31.55
2019-06-08T18:06:01.744Z,31.70
2019-06-08T18:08:33.789Z,31.75
2019-06-08T18:11:05.142Z,31.76
2019-06-08T18:13:39.055Z,31.84
2019-06-08T18:16:09.431Z,31.96
2019-06-08T18:18:42.316Z,31.96
2019-06-08T18:21:13.564Z,32.01
2019-06-08T18:23:45.304Z,32.07
2019-06-08T18:26:17.247Z,32.20
2019-06-08T18:28:48.727Z,32.21
2019-06-08T18:31:19.920Z,32.25
2019-06-08T18:33:51.261Z,32.26
2019-06-08T18:36:22.445Z,32.29
2019-06-08T18:38:53.738Z,32.32
2019-06-08T18:41:27.022Z,32.33
2019-06-08T18:43:58.426Z,32.38
2019-06-08T18:46:29.739Z,32.39
2019-06-08T18:49:02.115Z,32.47
2019-06-08T18:51:33.405Z,32.55
2019-06-08T18:54:11.332Z,32.62
2019-06-08T18:56:40.068Z,32.71
2019-06-08T18:59:10.609Z,32.75
2019-06-08T19:01:42.169Z,32.84
2019-06-08T19:04:14.693Z,32.88
2019-06-08T19:06:48.386Z,32.94
2019-06-08T19:09:19.339Z,33.00
2019-06-08T19:11:50.792Z,33.09
2019-06-08T19:14:22.323Z,32.11
2019-06-08T19:16:54.836Z,31.75
2019-06-08T19:19:52.317Z,32.35
2019-06-08T19:22:44.668Z,32.60
2019-06-08T19:25:17.619Z,32.86
2019-06-08T19:27:53.124Z,32.99
2019-06-08T19:30:24.255Z,33.12
2019-06-08T19:32:55.129Z,33.23
2019-06-08T19:35:27.381Z,33.31
2019-06-08T19:37:58.741Z,33.39
2019-06-08T19:40:30.071Z,33.46
2019-06-08T19:43:01.683Z,33.56
2019-06-08T19:45:33.183Z,33.65
2019-06-08T19:48:04.421Z,33.01
2019-06-08T19:50:35.611Z,33.46
2019-06-08T19:53:07.333Z,33.63
2019-06-08T19:55:39.348Z,33.08
2019-06-08T19:58:10.650Z,33.63
2019-06-08T20:00:42.374Z,33.10
2019-06-08T20:03:14.467Z,33.67
2019-06-08T20:05:46.771Z,33.23
2019-06-08T20:08:18.668Z,33.11
2019-06-08T20:10:50.797Z,33.16
2019-06-08T20:13:22.364Z,33.79
2019-06-08T20:15:58.312Z,34.04
2019-06-08T20:18:27.935Z,34.22
2019-06-08T20:20:59.432Z,34.40
2019-06-08T20:23:30.636Z,34.53
2019-06-08T20:26:01.938Z,34.63
2019-06-08T20:28:34.277Z,34.75
2019-06-08T20:31:07.464Z,34.89
2019-06-08T20:33:38.480Z,35.02
2019-06-08T20:36:09.646Z,35.14
2019-06-08T20:38:43.758Z,35.25
2019-06-08T20:41:13.660Z,35.39
2019-06-08T20:43:47.757Z,35.51
2019-06-08T20:46:20.262Z,35.63
2019-06-08T20:48:51.997Z,35.75
2019-06-08T20:51:23.692Z,35.86
2019-06-08T20:53:57.171Z,35.98
2019-06-08T20:56:28.193Z,36.11
2019-06-08T20:58:59.501Z,36.22
2019-06-08T21:01:30.817Z,36.27
2019-06-08T21:04:03.765Z,36.34
2019-06-08T21:06:35.025Z,36.44
2019-06-08T21:09:07.933Z,36.52
2019-06-08T21:11:39.364Z,36.50
2019-06-08T21:14:10.675Z,36.81
2019-06-08T21:16:41.863Z,36.92
2019-06-08T21:19:13.048Z,37.01
2019-06-08T21:21:45.619Z,37.08
2019-06-08T21:24:17.410Z,37.16
2019-06-08T21:26:51.258Z,37.24
2019-06-08T21:29:21.613Z,37.32
2019-06-08T21:31:55.094Z,37.40
2019-06-08T21:34:25.763Z,37.48
2019-06-08T21:37:00.684Z,37.60
2019-06-08T21:39:29.872Z,37.69
2019-06-08T21:42:03.021Z,37.75
2019-06-08T21:44:34.063Z,37.78
2019-06-08T21:47:07.705Z,37.80
2019-06-08T21:49:38.543Z,37.83
2019-06-08T21:52:09.907Z,37.71
2019-06-08T21:54:41.103Z,37.70
2019-06-08T21:57:12.485Z,38.09
2019-06-08T21:59:43.804Z,38.19
2019-06-08T22:02:15.251Z,38.23
2019-06-08T22:04:47.773Z,38.15
2019-06-08T22:07:19.225Z,38.51
2019-06-08T22:09:50.498Z,38.27
2019-06-08T22:12:21.781Z,38.13
2019-06-08T22:14:53.012Z,38.55
2019-06-08T22:17:24.102Z,38.65
2019-06-08T22:19:55.340Z,38.71
2019-06-08T22:22:26.503Z,38.72
2019-06-08T22:25:00.982Z,38.76
2019-06-08T22:27:31.425Z,38.82
2019-06-08T22:30:09.800Z,38.87
2019-06-08T22:32:38.275Z,38.94
2019-06-08T22:35:08.385Z,39.06
2019-06-08T22:37:39.580Z,39.09
2019-06-08T22:40:10.778Z,39.13
2019-06-08T22:42:41.931Z,39.16
2019-06-08T22:45:13.272Z,39.19
2019-06-08T22:47:44.467Z,39.21
2019-06-08T22:50:18.401Z,39.26
2019-06-08T22:52:48.771Z,39.26
2019-06-08T22:55:19.974Z,39.31
2019-06-08T22:57:51.179Z,39.32
2019-06-08T23:00:24.805Z,39.36
2019-06-08T23:02:56.760Z,39.40
2019-06-08T23:05:28.275Z,39.42
2019-06-08T23:08:04.324Z,39.46
2019-06-08T23:10:32.368Z,39.56
2019-06-08T23:13:04.364Z,39.64
2019-06-08T23:15:36.445Z,39.74
2019-06-08T23:18:09.429Z,39.79
2019-06-08T23:20:40.456Z,39.89
2019-06-08T23:23:11.633Z,39.93
2019-06-08T23:25:42.867Z,39.96
2019-06-08T23:28:14.056Z,40.01
2019-06-08T23:30:47.690Z,40.05
2019-06-08T23:33:19.192Z,40.07
2019-06-08T23:36:32.322Z,40.11
2019-06-08T23:38:23.250Z,40.12
2019-06-08T23:40:54.451Z,40.13
2019-06-08T23:43:28.024Z,40.14
2019-06-08T23:46:00.882Z,40.10
2019-06-08T23:48:32.564Z,40.11
2019-06-08T23:51:04.330Z,40.11
2019-06-08T23:53:38.038Z,40.20
2019-06-08T23:56:11.740Z,40.21
2019-06-08T23:58:41.413Z,40.28
